createdAt,value
2023-03-12T00:03:12.827Z,81.7
2023-03-12T00:18:21.712Z,81.8
2023-03-12T00:33:31.165Z,81.9
2023-03-12T00:48:42.787Z,81.8
2023-03-12T01:03:52.420Z,82.2
2023-03-12T01:19:02.077Z,82.2
2023-03-12T01:34:11.501Z,81.6
2023-03-12T01:49:20.902Z,81.5
2023-03-12T02:04:30.815Z,81.5
2023-03-12T02:19:42.222Z,81.6
2023-03-12T02:34:52.097Z,81.7
2023-03-12T02:50:01.781Z,81.8
2023-03-12T03:05:11.200Z,82
2023-03-12T03:20:20.659Z,82.1
2023-03-12T03:35:30.570Z,82.2
2023-03-12T03:50:40.911Z,82.1
2023-03-12T04:05:50.644Z,82.1
2023-03-12T04:20:59.885Z,82.1
2023-03-12T04:36:10.652Z,82.2
2023-03-12T04:52:30.647Z,80.5
2023-03-12T05:08:51.328Z,80.2
2023-03-12T05:25:12.016Z,80
2023-03-12T05:41:32.392Z,79.9
2023-03-12T05:57:53.147Z,79.8
2023-03-12T06:14:13.648Z,79.7
2023-03-12T06:30:34.429Z,79.6
2023-03-12T06:47:10.071Z,78.9
2023-03-12T07:03:35.943Z,78.7
2023-03-12T07:19:56.450Z,78.5
2023-03-12T07:36:20.654Z,78.2
2023-03-12T07:52:44.959Z,77.9
2023-03-12T08:09:05.446Z,77.3
2023-03-12T08:25:25.935Z,76.9
2023-03-12T08:41:46.578Z,76.7
2023-03-12T08:58:06.648Z,76.6
2023-03-12T09:15:05.636Z,75.9
2023-03-12T09:31:26.037Z,75.3
2023-03-12T09:47:46.708Z,74.6
2023-03-12T10:04:08.491Z,73.9
2023-03-12T10:20:29.454Z,73.5
2023-03-12T10:36:50.206Z,73.2
2023-03-12T10:53:10.828Z,72.8
2023-03-12T11:09:31.303Z,72.8
2023-03-12T11:25:51.882Z,73.6
2023-03-12T11:42:12.204Z,74.4
2023-03-12T11:58:32.266Z,75.7
2023-03-12T12:14:52.416Z,76.6
2023-03-12T12:30:02.505Z,78.1
2023-03-12T12:45:11.579Z,78.3
2023-03-12T13:00:21.354Z,78.2
2023-03-12T13:15:31.174Z,78.3
2023-03-12T13:33:48.368Z,79.1
2023-03-12T13:49:09.802Z,80.6
2023-03-12T14:04:20.946Z,80.4
2023-03-12T14:19:30.520Z,80.3
2023-03-12T14:34:40.277Z,80.2
2023-03-12T14:49:50.131Z,80
2023-03-12T15:04:59.999Z,79.8
2023-03-12T15:20:10.352Z,79.9
2023-03-12T15:35:21.005Z,80
2023-03-12T15:50:31.187Z,80.1
2023-03-12T16:05:41.566Z,80.1
2023-03-12T16:20:51.764Z,79.9
2023-03-12T16:36:02.454Z,79.8
2023-03-12T16:51:12.362Z,79.9
2023-03-12T17:06:22.320Z,80.1
2023-03-12T17:21:31.344Z,80.3
2023-03-12T17:36:41.413Z,80.6
2023-03-12T17:51:51.280Z,80.8
2023-03-12T18:07:01.199Z,80.9
2023-03-12T18:22:10.684Z,81
2023-03-12T18:37:20.554Z,80.9
2023-03-12T18:52:30.795Z,80.8
2023-03-12T19:07:40.517Z,81.1
2023-03-12T19:22:50.330Z,81.4
2023-03-12T19:38:00.652Z,81.4
2023-03-12T19:53:10.219Z,81.6
2023-03-12T20:08:20.939Z,81.7
2023-03-12T20:23:30.810Z,81.9
2023-03-12T20:38:40.474Z,81.9
2023-03-12T20:53:49.624Z,82.1
2023-03-12T21:08:59.376Z,83.1
2023-03-12T21:24:08.773Z,82.6
2023-03-12T21:39:18.395Z,82.7
2023-03-12T21:54:28.204Z,82.7
2023-03-12T22:10:56.389Z,82.4
2023-03-12T22:26:07.283Z,83.4
2023-03-12T22:41:17.941Z,83.1
2023-03-12T22:56:27.841Z,83
2023-03-12T23:11:37.422Z,82.9
2023-03-12T23:26:46.794Z,82.9
2023-03-12T23:41:56.608Z,82.9
2023-03-12T23:57:06.113Z,82.9
